sensor_id;sensor_type;location;lat;lon;timestamp;P1;durP1;ratioP1;P2;durP2;ratioP2
14342;SDS011;7255;53.596;9.960;2023-04-06T00:02:22;9.87;;;8.17;;
14342;SDS011;7255;53.596;9.960;2023-04-06T00:04:48;10.77;;;7.83;;
14342;SDS011;7255;53.596;9.960;2023-04-06T00:07:16;8.63;;;6.60;;
14342;SDS011;7255;53.596;9.960;2023-04-06T00:09:42;7.80;;;6.80;;
14342;SDS011;7255;53.596;9.960;2023-04-06T00:12:08;6.90;;;6.07;;
14342;SDS011;7255;53.596;9.960;2023-04-06T00:14:35;7.90;;;6.50;;
14342;SDS011;7255;53.596;9.960;2023-04-06T00:17:01;10.30;;;6.77;;
14342;SDS011;7255;53.596;9.960;2023-04-06T00:19:27;8.50;;;6.97;;
14342;SDS011;7255;53.596;9.960;2023-04-06T00:21:54;10.47;;;6.97;;
14342;SDS011;7255;53.596;9.960;2023-04-06T00:24:21;7.77;;;6.57;;
14342;SDS011;7255;53.596;9.960;2023-04-06T00:26:48;7.47;;;6.67;;
14342;SDS011;7255;53.596;9.960;2023-04-06T00:29:14;8.67;;;6.70;;
14342;SDS011;7255;53.596;9.960;2023-04-06T00:31:40;9.63;;;6.33;;
14342;SDS011;7255;53.596;9.960;2023-04-06T00:34:07;7.97;;;6.47;;
14342;SDS011;7255;53.596;9.960;2023-04-06T00:36:33;8.50;;;6.40;;
14342;SDS011;7255;53.596;9.960;2023-04-06T00:39:00;7.83;;;6.33;;
14342;SDS011;7255;53.596;9.960;2023-04-06T00:41:27;8.87;;;7.10;;
14342;SDS011;7255;53.596;9.960;2023-04-06T00:43:54;7.43;;;6.57;;
14342;SDS011;7255;53.596;9.960;2023-04-06T00:46:20;7.17;;;6.50;;
14342;SDS011;7255;53.596;9.960;2023-04-06T00:48:46;7.97;;;7.17;;
14342;SDS011;7255;53.596;9.960;2023-04-06T00:51:13;8.20;;;6.40;;
14342;SDS011;7255;53.596;9.960;2023-04-06T00:53:39;8.13;;;6.93;;
14342;SDS011;7255;53.596;9.960;2023-04-06T00:56:06;7.63;;;6.83;;
14342;SDS011;7255;53.596;9.960;2023-04-06T00:58:36;8.33;;;6.70;;
14342;SDS011;7255;53.596;9.960;2023-04-06T01:01:03;9.73;;;6.90;;
14342;SDS011;7255;53.596;9.960;2023-04-06T01:03:30;7.33;;;6.53;;
14342;SDS011;7255;53.596;9.960;2023-04-06T01:05:56;10.00;;;8.43;;
14342;SDS011;7255;53.596;9.960;2023-04-06T01:08:23;7.43;;;6.40;;
14342;SDS011;7255;53.596;9.960;2023-04-06T01:10:49;7.63;;;6.83;;
14342;SDS011;7255;53.596;9.960;2023-04-06T01:13:16;8.50;;;6.63;;
14342;SDS011;7255;53.596;9.960;2023-04-06T01:15:43;8.17;;;7.33;;
14342;SDS011;7255;53.596;9.960;2023-04-06T01:18:10;11.13;;;6.60;;
14342;SDS011;7255;53.596;9.960;2023-04-06T01:20:36;10.07;;;6.97;;
14342;SDS011;7255;53.596;9.960;2023-04-06T01:23:05;8.97;;;7.27;;
14342;SDS011;7255;53.596;9.960;2023-04-06T01:25:31;8.43;;;7.17;;
14342;SDS011;7255;53.596;9.960;2023-04-06T01:27:57;8.30;;;7.27;;
14342;SDS011;7255;53.596;9.960;2023-04-06T01:30:23;7.53;;;6.67;;
14342;SDS011;7255;53.596;9.960;2023-04-06T01:32:50;9.20;;;6.67;;
14342;SDS011;7255;53.596;9.960;2023-04-06T01:35:17;13.50;;;7.87;;
14342;SDS011;7255;53.596;9.960;2023-04-06T01:37:43;8.10;;;7.30;;
14342;SDS011;7255;53.596;9.960;2023-04-06T01:40:11;7.80;;;6.83;;
14342;SDS011;7255;53.596;9.960;2023-04-06T01:42:38;11.07;;;6.87;;
14342;SDS011;7255;53.596;9.960;2023-04-06T01:45:05;8.53;;;7.70;;
14342;SDS011;7255;53.596;9.960;2023-04-06T01:47:32;8.67;;;6.97;;
14342;SDS011;7255;53.596;9.960;2023-04-06T01:49:58;8.87;;;7.00;;
14342;SDS011;7255;53.596;9.960;2023-04-06T01:52:24;8.07;;;7.10;;
14342;SDS011;7255;53.596;9.960;2023-04-06T01:54:51;8.63;;;7.73;;
14342;SDS011;7255;53.596;9.960;2023-04-06T01:57:18;9.70;;;7.40;;
14342;SDS011;7255;53.596;9.960;2023-04-06T01:59:45;10.90;;;7.27;;
14342;SDS011;7255;53.596;9.960;2023-04-06T02:02:11;8.20;;;7.10;;
14342;SDS011;7255;53.596;9.960;2023-04-06T02:04:38;9.80;;;6.83;;
14342;SDS011;7255;53.596;9.960;2023-04-06T02:07:04;8.67;;;7.10;;
14342;SDS011;7255;53.596;9.960;2023-04-06T02:09:30;8.97;;;7.53;;
14342;SDS011;7255;53.596;9.960;2023-04-06T02:11:57;8.13;;;7.33;;
14342;SDS011;7255;53.596;9.960;2023-04-06T02:14:25;8.53;;;6.77;;
14342;SDS011;7255;53.596;9.960;2023-04-06T02:16:51;11.03;;;7.07;;
14342;SDS011;7255;53.596;9.960;2023-04-06T02:19:18;7.87;;;7.00;;
14342;SDS011;7255;53.596;9.960;2023-04-06T02:21:45;8.33;;;6.93;;
14342;SDS011;7255;53.596;9.960;2023-04-06T02:24:11;9.80;;;7.37;;
14342;SDS011;7255;53.596;9.960;2023-04-06T02:26:37;8.23;;;7.27;;
14342;SDS011;7255;53.596;9.960;2023-04-06T02:29:04;8.10;;;7.30;;
14342;SDS011;7255;53.596;9.960;2023-04-06T02:31:32;8.70;;;7.20;;
14342;SDS011;7255;53.596;9.960;2023-04-06T02:33:58;10.83;;;7.30;;
14342;SDS011;7255;53.596;9.960;2023-04-06T02:36:24;10.30;;;6.93;;
14342;SDS011;7255;53.596;9.960;2023-04-06T02:38:51;9.07;;;7.33;;
14342;SDS011;7255;53.596;9.960;2023-04-06T02:41:17;8.23;;;7.40;;
14342;SDS011;7255;53.596;9.960;2023-04-06T02:43:44;8.07;;;7.37;;
14342;SDS011;7255;53.596;9.960;2023-04-06T02:46:10;8.20;;;7.23;;
14342;SDS011;7255;53.596;9.960;2023-04-06T02:48:38;9.47;;;8.03;;
14342;SDS011;7255;53.596;9.960;2023-04-06T02:51:04;10.37;;;7.50;;
14342;SDS011;7255;53.596;9.960;2023-04-06T02:53:31;8.30;;;7.27;;
14342;SDS011;7255;53.596;9.960;2023-04-06T02:55:57;8.93;;;7.57;;
14342;SDS011;7255;53.596;9.960;2023-04-06T02:58:23;9.00;;;8.10;;
14342;SDS011;7255;53.596;9.960;2023-04-06T03:00:50;9.77;;;7.47;;
14342;SDS011;7255;53.596;9.960;2023-04-06T03:03:16;10.87;;;7.70;;
14342;SDS011;7255;53.596;9.960;2023-04-06T03:05:43;8.33;;;7.53;;
14342;SDS011;7255;53.596;9.960;2023-04-06T03:08:10;8.00;;;7.23;;
14342;SDS011;7255;53.596;9.960;2023-04-06T03:10:36;7.47;;;6.77;;
14342;SDS011;7255;53.596;9.960;2023-04-06T03:13:02;8.27;;;7.10;;
14342;SDS011;7255;53.596;9.960;2023-04-06T03:15:29;8.87;;;7.97;;
14342;SDS011;7255;53.596;9.960;2023-04-06T03:17:55;9.50;;;7.70;;
14342;SDS011;7255;53.596;9.960;2023-04-06T03:20:21;8.93;;;7.77;;
14342;SDS011;7255;53.596;9.960;2023-04-06T03:22:49;9.47;;;8.23;;
14342;SDS011;7255;53.596;9.960;2023-04-06T03:25:15;9.93;;;7.40;;
14342;SDS011;7255;53.596;9.960;2023-04-06T03:27:42;10.13;;;8.20;;
14342;SDS011;7255;53.596;9.960;2023-04-06T03:30:08;9.73;;;8.73;;
14342;SDS011;7255;53.596;9.960;2023-04-06T03:32:35;11.07;;;8.67;;
14342;SDS011;7255;53.596;9.960;2023-04-06T03:35:01;9.37;;;8.40;;
14342;SDS011;7255;53.596;9.960;2023-04-06T03:37:28;10.67;;;8.20;;
14342;SDS011;7255;53.596;9.960;2023-04-06T03:39:55;9.83;;;8.73;;
14342;SDS011;7255;53.596;9.960;2023-04-06T03:42:21;12.27;;;10.10;;
14342;SDS011;7255;53.596;9.960;2023-04-06T03:44:48;11.90;;;9.50;;
14342;SDS011;7255;53.596;9.960;2023-04-06T03:47:14;12.23;;;9.97;;
14342;SDS011;7255;53.596;9.960;2023-04-06T03:49:40;11.00;;;9.03;;
14342;SDS011;7255;53.596;9.960;2023-04-06T03:52:07;13.60;;;9.37;;
14342;SDS011;7255;53.596;9.960;2023-04-06T03:54:33;10.23;;;9.23;;
14342;SDS011;7255;53.596;9.960;2023-04-06T03:57:00;11.47;;;9.37;;
14342;SDS011;7255;53.596;9.960;2023-04-06T03:59:27;12.07;;;9.93;;
14342;SDS011;7255;53.596;9.960;2023-04-06T04:01:53;12.47;;;9.23;;
14342;SDS011;7255;53.596;9.960;2023-04-06T04:04:19;13.73;;;9.00;;
14342;SDS011;7255;53.596;9.960;2023-04-06T04:06:46;11.83;;;9.70;;
14342;SDS011;7255;53.596;9.960;2023-04-06T04:09:12;11.30;;;9.67;;
14342;SDS011;7255;53.596;9.960;2023-04-06T04:11:38;13.93;;;10.07;;
14342;SDS011;7255;53.596;9.960;2023-04-06T04:14:06;13.00;;;9.77;;
14342;SDS011;7255;53.596;9.960;2023-04-06T04:16:32;11.43;;;9.87;;
14342;SDS011;7255;53.596;9.960;2023-04-06T04:18:58;14.43;;;9.97;;
14342;SDS011;7255;53.596;9.960;2023-04-06T04:21:25;11.03;;;9.93;;
14342;SDS011;7255;53.596;9.960;2023-04-06T04:23:51;13.27;;;10.17;;
14342;SDS011;7255;53.596;9.960;2023-04-06T04:26:18;11.80;;;9.50;;
14342;SDS011;7255;53.596;9.960;2023-04-06T04:28:44;11.60;;;10.00;;
14342;SDS011;7255;53.596;9.960;2023-04-06T04:31:12;13.47;;;10.40;;
14342;SDS011;7255;53.596;9.960;2023-04-06T04:33:38;14.03;;;10.23;;
14342;SDS011;7255;53.596;9.960;2023-04-06T04:36:05;13.00;;;10.63;;
14342;SDS011;7255;53.596;9.960;2023-04-06T04:38:31;14.37;;;10.47;;
14342;SDS011;7255;53.596;9.960;2023-04-06T04:40:58;11.73;;;10.53;;
14342;SDS011;7255;53.596;9.960;2023-04-06T04:43:24;13.93;;;10.43;;
14342;SDS011;7255;53.596;9.960;2023-04-06T04:45:50;10.77;;;9.70;;
14342;SDS011;7255;53.596;9.960;2023-04-06T04:48:18;13.27;;;10.83;;
14342;SDS011;7255;53.596;9.960;2023-04-06T04:50:45;12.00;;;10.37;;
14342;SDS011;7255;53.596;9.960;2023-04-06T04:53:11;14.30;;;10.87;;
14342;SDS011;7255;53.596;9.960;2023-04-06T04:55:37;12.77;;;10.30;;
14342;SDS011;7255;53.596;9.960;2023-04-06T04:58:04;12.00;;;10.37;;
14342;SDS011;7255;53.596;9.960;2023-04-06T05:00:30;12.60;;;10.77;;
14342;SDS011;7255;53.596;9.960;2023-04-06T05:02:56;14.07;;;10.57;;
14342;SDS011;7255;53.596;9.960;2023-04-06T05:05:24;13.50;;;10.40;;
14342;SDS011;7255;53.596;9.960;2023-04-06T05:07:50;12.37;;;9.93;;
14342;SDS011;7255;53.596;9.960;2023-04-06T05:10:17;14.17;;;10.63;;
14342;SDS011;7255;53.596;9.960;2023-04-06T05:12:43;12.17;;;10.13;;
14342;SDS011;7255;53.596;9.960;2023-04-06T05:15:10;14.60;;;10.50;;
14342;SDS011;7255;53.596;9.960;2023-04-06T05:17:36;11.47;;;10.00;;
14342;SDS011;7255;53.596;9.960;2023-04-06T05:20:03;15.77;;;11.43;;
14342;SDS011;7255;53.596;9.960;2023-04-06T05:22:32;10.83;;;9.83;;
14342;SDS011;7255;53.596;9.960;2023-04-06T05:24:58;11.97;;;9.90;;
14342;SDS011;7255;53.596;9.960;2023-04-06T05:27:24;13.27;;;11.13;;
14342;SDS011;7255;53.596;9.960;2023-04-06T05:29:50;13.23;;;10.80;;
14342;SDS011;7255;53.596;9.960;2023-04-06T05:32:17;11.17;;;9.97;;
14342;SDS011;7255;53.596;9.960;2023-04-06T05:34:46;13.07;;;10.30;;
14342;SDS011;7255;53.596;9.960;2023-04-06T05:37:13;11.40;;;10.00;;
14342;SDS011;7255;53.596;9.960;2023-04-06T05:39:41;13.50;;;11.77;;
14342;SDS011;7255;53.596;9.960;2023-04-06T05:42:07;14.03;;;11.07;;
14342;SDS011;7255;53.596;9.960;2023-04-06T05:44:34;11.33;;;10.13;;
14342;SDS011;7255;53.596;9.960;2023-04-06T05:47:00;12.97;;;10.80;;
14342;SDS011;7255;53.596;9.960;2023-04-06T05:49:26;13.27;;;10.93;;
14342;SDS011;7255;53.596;9.960;2023-04-06T05:51:53;13.77;;;11.03;;
14342;SDS011;7255;53.596;9.960;2023-04-06T05:54:19;11.60;;;10.40;;
14342;SDS011;7255;53.596;9.960;2023-04-06T05:56:47;12.63;;;10.97;;
14342;SDS011;7255;53.596;9.960;2023-04-06T05:59:13;14.17;;;11.07;;
14342;SDS011;7255;53.596;9.960;2023-04-06T06:01:40;13.80;;;11.10;;
14342;SDS011;7255;53.596;9.960;2023-04-06T06:04:06;13.87;;;11.27;;
14342;SDS011;7255;53.596;9.960;2023-04-06T06:06:33;13.63;;;12.17;;
14342;SDS011;7255;53.596;9.960;2023-04-06T06:08:59;11.80;;;10.60;;
14342;SDS011;7255;53.596;9.960;2023-04-06T06:11:26;13.87;;;10.80;;
14342;SDS011;7255;53.596;9.960;2023-04-06T06:13:53;12.77;;;11.57;;
14342;SDS011;7255;53.596;9.960;2023-04-06T06:16:20;18.60;;;12.13;;
14342;SDS011;7255;53.596;9.960;2023-04-06T06:18:46;16.70;;;11.10;;
14342;SDS011;7255;53.596;9.960;2023-04-06T06:21:13;13.55;;;12.13;;
14342;SDS011;7255;53.596;9.960;2023-04-06T06:23:42;15.80;;;12.20;;
14342;SDS011;7255;53.596;9.960;2023-04-06T06:26:08;14.13;;;11.07;;
14342;SDS011;7255;53.596;9.960;2023-04-06T06:28:35;14.80;;;10.60;;
14342;SDS011;7255;53.596;9.960;2023-04-06T06:31:03;13.40;;;12.02;;
14342;SDS011;7255;53.596;9.960;2023-04-06T06:33:29;12.13;;;10.77;;
14342;SDS011;7255;53.596;9.960;2023-04-06T06:35:56;12.70;;;10.33;;
14342;SDS011;7255;53.596;9.960;2023-04-06T06:38:22;11.80;;;10.57;;
14342;SDS011;7255;53.596;9.960;2023-04-06T06:40:48;13.10;;;10.50;;
14342;SDS011;7255;53.596;9.960;2023-04-06T06:43:15;11.20;;;10.07;;
14342;SDS011;7255;53.596;9.960;2023-04-06T06:45:41;13.00;;;11.60;;
14342;SDS011;7255;53.596;9.960;2023-04-06T06:48:09;10.10;;;9.07;;
14342;SDS011;7255;53.596;9.960;2023-04-06T06:50:35;10.47;;;9.47;;
14342;SDS011;7255;53.596;9.960;2023-04-06T06:53:02;12.00;;;10.52;;
14342;SDS011;7255;53.596;9.960;2023-04-06T06:55:28;14.05;;;10.25;;
14342;SDS011;7255;53.596;9.960;2023-04-06T06:57:54;11.68;;;10.25;;
14342;SDS011;7255;53.596;9.960;2023-04-06T07:00:21;16.50;;;8.30;;
14342;SDS011;7255;53.596;9.960;2023-04-06T07:02:48;12.40;;;8.80;;
14342;SDS011;7255;53.596;9.960;2023-04-06T07:05:16;10.43;;;9.00;;
14342;SDS011;7255;53.596;9.960;2023-04-06T07:07:43;11.83;;;8.70;;
14342;SDS011;7255;53.596;9.960;2023-04-06T07:10:09;9.83;;;8.57;;
14342;SDS011;7255;53.596;9.960;2023-04-06T07:12:36;9.43;;;8.50;;
14342;SDS011;7255;53.596;9.960;2023-04-06T07:15:03;10.13;;;7.97;;
14342;SDS011;7255;53.596;9.960;2023-04-06T07:17:29;10.27;;;8.40;;
14342;SDS011;7255;53.596;9.960;2023-04-06T07:19:56;9.10;;;8.10;;
14342;SDS011;7255;53.596;9.960;2023-04-06T07:22:23;9.80;;;7.80;;
14342;SDS011;7255;53.596;9.960;2023-04-06T07:24:50;14.23;;;8.23;;
14342;SDS011;7255;53.596;9.960;2023-04-06T07:27:16;12.77;;;9.07;;
14342;SDS011;7255;53.596;9.960;2023-04-06T07:29:43;10.47;;;8.47;;
14342;SDS011;7255;53.596;9.960;2023-04-06T07:32:10;10.20;;;7.90;;
14342;SDS011;7255;53.596;9.960;2023-04-06T07:34:36;8.03;;;7.23;;
14342;SDS011;7255;53.596;9.960;2023-04-06T07:37:02;10.07;;;7.07;;
14342;SDS011;7255;53.596;9.960;2023-04-06T07:39:30;9.73;;;7.68;;
14342;SDS011;7255;53.596;9.960;2023-04-06T07:41:56;9.98;;;8.13;;
14342;SDS011;7255;53.596;9.960;2023-04-06T07:44:22;8.38;;;7.32;;
14342;SDS011;7255;53.596;9.960;2023-04-06T07:46:49;12.27;;;7.75;;
14342;SDS011;7255;53.596;9.960;2023-04-06T07:49:15;9.50;;;7.17;;
14342;SDS011;7255;53.596;9.960;2023-04-06T07:51:42;8.55;;;6.60;;
14342;SDS011;7255;53.596;9.960;2023-04-06T07:54:08;7.40;;;6.65;;
14342;SDS011;7255;53.596;9.960;2023-04-06T07:56:36;8.15;;;6.65;;
14342;SDS011;7255;53.596;9.960;2023-04-06T07:59:02;7.20;;;6.18;;
14342;SDS011;7255;53.596;9.960;2023-04-06T08:01:28;7.50;;;6.10;;
14342;SDS011;7255;53.596;9.960;2023-04-06T08:03:55;7.62;;;6.07;;
14342;SDS011;7255;53.596;9.960;2023-04-06T08:06:22;8.93;;;6.30;;
14342;SDS011;7255;53.596;9.960;2023-04-06T08:08:48;8.80;;;6.10;;
14342;SDS011;7255;53.596;9.960;2023-04-06T08:11:14;8.32;;;6.30;;
14342;SDS011;7255;53.596;9.960;2023-04-06T08:13:42;6.47;;;5.60;;
14342;SDS011;7255;53.596;9.960;2023-04-06T08:16:08;6.68;;;5.62;;
14342;SDS011;7255;53.596;9.960;2023-04-06T08:18:34;6.70;;;5.78;;
14342;SDS011;7255;53.596;9.960;2023-04-06T08:21:01;6.93;;;5.45;;
14342;SDS011;7255;53.596;9.960;2023-04-06T08:23:27;7.55;;;5.37;;
14342;SDS011;7255;53.596;9.960;2023-04-06T08:25:53;7.05;;;5.18;;
14342;SDS011;7255;53.596;9.960;2023-04-06T08:28:20;10.57;;;5.70;;
14342;SDS011;7255;53.596;9.960;2023-04-06T08:30:48;14.00;;;5.90;;
14342;SDS011;7255;53.596;9.960;2023-04-06T08:33:15;8.40;;;5.78;;
14342;SDS011;7255;53.596;9.960;2023-04-06T08:35:41;6.45;;;5.32;;
14342;SDS011;7255;53.596;9.960;2023-04-06T08:38:07;6.97;;;5.40;;
14342;SDS011;7255;53.596;9.960;2023-04-06T08:40:35;7.12;;;5.62;;
14342;SDS011;7255;53.596;9.960;2023-04-06T08:43:02;6.95;;;5.85;;
14342;SDS011;7255;53.596;9.960;2023-04-06T08:45:33;7.03;;;5.90;;
14342;SDS011;7255;53.596;9.960;2023-04-06T08:48:01;6.85;;;6.03;;
14342;SDS011;7255;53.596;9.960;2023-04-06T08:50:29;6.65;;;6.03;;
14342;SDS011;7255;53.596;9.960;2023-04-06T08:52:55;6.97;;;6.28;;
14342;SDS011;7255;53.596;9.960;2023-04-06T08:55:22;7.50;;;6.80;;
14342;SDS011;7255;53.596;9.960;2023-04-06T08:57:49;7.72;;;6.12;;
14342;SDS011;7255;53.596;9.960;2023-04-06T09:00:18;6.47;;;5.87;;
14342;SDS011;7255;53.596;9.960;2023-04-06T09:02:46;7.10;;;6.40;;
14342;SDS011;7255;53.596;9.960;2023-04-06T09:05:16;7.75;;;6.45;;
14342;SDS011;7255;53.596;9.960;2023-04-06T09:07:43;6.10;;;5.53;;
14342;SDS011;7255;53.596;9.960;2023-04-06T09:10:10;6.75;;;6.05;;
14342;SDS011;7255;53.596;9.960;2023-04-06T09:12:37;7.10;;;5.78;;
14342;SDS011;7255;53.596;9.960;2023-04-06T09:15:03;6.25;;;5.50;;
14342;SDS011;7255;53.596;9.960;2023-04-06T09:17:31;6.95;;;5.30;;
14342;SDS011;7255;53.596;9.960;2023-04-06T09:19:58;5.65;;;4.85;;
14342;SDS011;7255;53.596;9.960;2023-04-06T09:22:34;7.32;;;4.85;;
14342;SDS011;7255;53.596;9.960;2023-04-06T09:25:01;5.97;;;4.90;;
14342;SDS011;7255;53.596;9.960;2023-04-06T09:27:31;5.60;;;4.60;;
14342;SDS011;7255;53.596;9.960;2023-04-06T09:30:07;5.28;;;4.78;;
14342;SDS011;7255;53.596;9.960;2023-04-06T09:32:45;8.02;;;4.90;;
14342;SDS011;7255;53.596;9.960;2023-04-06T09:35:13;5.12;;;4.62;;
14342;SDS011;7255;53.596;9.960;2023-04-06T09:37:42;4.97;;;4.47;;
14342;SDS011;7255;53.596;9.960;2023-04-06T09:40:09;6.22;;;4.20;;
14342;SDS011;7255;53.596;9.960;2023-04-06T09:42:36;7.62;;;4.65;;
14342;SDS011;7255;53.596;9.960;2023-04-06T09:45:02;5.87;;;4.82;;
14342;SDS011;7255;53.596;9.960;2023-04-06T09:47:29;5.20;;;4.70;;
14342;SDS011;7255;53.596;9.960;2023-04-06T09:49:58;5.93;;;5.00;;
14342;SDS011;7255;53.596;9.960;2023-04-06T09:52:26;6.77;;;4.87;;
14342;SDS011;7255;53.596;9.960;2023-04-06T09:54:55;6.72;;;4.60;;
14342;SDS011;7255;53.596;9.960;2023-04-06T09:57:29;5.15;;;4.65;;
14342;SDS011;7255;53.596;9.960;2023-04-06T10:00:01;5.18;;;4.68;;
14342;SDS011;7255;53.596;9.960;2023-04-06T10:02:34;4.97;;;4.45;;
14342;SDS011;7255;53.596;9.960;2023-04-06T10:05:07;4.60;;;4.18;;
14342;SDS011;7255;53.596;9.960;2023-04-06T10:07:38;5.65;;;3.92;;
14342;SDS011;7255;53.596;9.960;2023-04-06T10:10:07;5.22;;;3.97;;
14342;SDS011;7255;53.596;9.960;2023-04-06T10:12:36;5.40;;;3.65;;
14342;SDS011;7255;53.596;9.960;2023-04-06T10:15:03;5.18;;;4.03;;
14342;SDS011;7255;53.596;9.960;2023-04-06T10:17:30;5.00;;;3.60;;
14342;SDS011;7255;53.596;9.960;2023-04-06T10:19:58;7.10;;;3.80;;
14342;SDS011;7255;53.596;9.960;2023-04-06T10:22:32;4.90;;;4.20;;
14342;SDS011;7255;53.596;9.960;2023-04-06T10:25:02;5.00;;;4.05;;
14342;SDS011;7255;53.596;9.960;2023-04-06T10:27:30;4.82;;;3.80;;
14342;SDS011;7255;53.596;9.960;2023-04-06T10:30:02;5.43;;;4.18;;
14342;SDS011;7255;53.596;9.960;2023-04-06T10:32:36;6.18;;;4.32;;
14342;SDS011;7255;53.596;9.960;2023-04-06T10:35:07;5.68;;;4.00;;
14342;SDS011;7255;53.596;9.960;2023-04-06T10:37:45;4.65;;;4.03;;
14342;SDS011;7255;53.596;9.960;2023-04-06T10:40:20;4.85;;;3.90;;
14342;SDS011;7255;53.596;9.960;2023-04-06T10:42:50;5.37;;;4.43;;
14342;SDS011;7255;53.596;9.960;2023-04-06T10:45:19;7.60;;;4.37;;
14342;SDS011;7255;53.596;9.960;2023-04-06T10:47:47;4.60;;;3.83;;
14342;SDS011;7255;53.596;9.960;2023-04-06T10:50:14;5.05;;;4.20;;
14342;SDS011;7255;53.596;9.960;2023-04-06T10:52:41;4.85;;;3.87;;
14342;SDS011;7255;53.596;9.960;2023-04-06T10:55:08;6.83;;;4.43;;
14342;SDS011;7255;53.596;9.960;2023-04-06T10:57:35;5.60;;;4.60;;
14342;SDS011;7255;53.596;9.960;2023-04-06T11:00:05;4.80;;;4.37;;
14342;SDS011;7255;53.596;9.960;2023-04-06T11:02:33;6.28;;;4.97;;
14342;SDS011;7255;53.596;9.960;2023-04-06T11:05:00;6.25;;;5.30;;
14342;SDS011;7255;53.596;9.960;2023-04-06T11:07:26;6.30;;;5.20;;
14342;SDS011;7255;53.596;9.960;2023-04-06T11:09:55;5.22;;;4.72;;
14342;SDS011;7255;53.596;9.960;2023-04-06T11:12:22;6.05;;;5.00;;
14342;SDS011;7255;53.596;9.960;2023-04-06T11:14:53;5.50;;;5.00;;
14342;SDS011;7255;53.596;9.960;2023-04-06T11:17:26;6.57;;;5.20;;
14342;SDS011;7255;53.596;9.960;2023-04-06T11:19:52;6.57;;;5.40;;
14342;SDS011;7255;53.596;9.960;2023-04-06T11:22:19;7.65;;;5.68;;
14342;SDS011;7255;53.596;9.960;2023-04-06T11:24:45;5.77;;;5.17;;
14342;SDS011;7255;53.596;9.960;2023-04-06T11:27:12;6.20;;;5.50;;
14342;SDS011;7255;53.596;9.960;2023-04-06T11:29:40;6.20;;;5.57;;
14342;SDS011;7255;53.596;9.960;2023-04-06T11:32:06;6.20;;;5.60;;
14342;SDS011;7255;53.596;9.960;2023-04-06T11:34:35;6.47;;;5.82;;
14342;SDS011;7255;53.596;9.960;2023-04-06T11:37:04;6.33;;;5.73;;
14342;SDS011;7255;53.596;9.960;2023-04-06T11:39:37;7.00;;;5.80;;
14342;SDS011;7255;53.596;9.960;2023-04-06T11:42:05;7.37;;;6.05;;
14342;SDS011;7255;53.596;9.960;2023-04-06T11:44:31;7.70;;;6.03;;
14342;SDS011;7255;53.596;9.960;2023-04-06T11:47:00;8.10;;;6.40;;
14342;SDS011;7255;53.596;9.960;2023-04-06T11:49:27;6.68;;;5.97;;
14342;SDS011;7255;53.596;9.960;2023-04-06T11:51:55;7.25;;;6.00;;
14342;SDS011;7255;53.596;9.960;2023-04-06T11:54:32;6.97;;;6.18;;
14342;SDS011;7255;53.596;9.960;2023-04-06T11:56:59;6.85;;;5.70;;
14342;SDS011;7255;53.596;9.960;2023-04-06T11:59:26;7.12;;;6.43;;
14342;SDS011;7255;53.596;9.960;2023-04-06T12:01:53;6.78;;;5.87;;
14342;SDS011;7255;53.596;9.960;2023-04-06T12:04:19;7.20;;;6.12;;
14342;SDS011;7255;53.596;9.960;2023-04-06T12:06:46;7.22;;;5.60;;
14342;SDS011;7255;53.596;9.960;2023-04-06T12:09:14;6.85;;;5.70;;
14342;SDS011;7255;53.596;9.960;2023-04-06T12:11:40;6.32;;;5.72;;
14342;SDS011;7255;53.596;9.960;2023-04-06T12:14:06;6.75;;;6.07;;
14342;SDS011;7255;53.596;9.960;2023-04-06T12:16:33;6.20;;;5.60;;
14342;SDS011;7255;53.596;9.960;2023-04-06T12:18:59;6.40;;;5.80;;
14342;SDS011;7255;53.596;9.960;2023-04-06T12:21:26;7.15;;;6.15;;
14342;SDS011;7255;53.596;9.960;2023-04-06T12:23:53;6.77;;;5.93;;
14342;SDS011;7255;53.596;9.960;2023-04-06T12:26:20;7.93;;;6.32;;
14342;SDS011;7255;53.596;9.960;2023-04-06T12:28:47;6.68;;;5.70;;
14342;SDS011;7255;53.596;9.960;2023-04-06T12:31:16;6.87;;;5.80;;
14342;SDS011;7255;53.596;9.960;2023-04-06T12:33:43;6.87;;;6.22;;
14342;SDS011;7255;53.596;9.960;2023-04-06T12:36:11;6.70;;;5.87;;
14342;SDS011;7255;53.596;9.960;2023-04-06T12:38:38;6.65;;;5.93;;
14342;SDS011;7255;53.596;9.960;2023-04-06T12:41:06;6.45;;;5.85;;
14342;SDS011;7255;53.596;9.960;2023-04-06T12:43:33;6.90;;;6.20;;
14342;SDS011;7255;53.596;9.960;2023-04-06T12:46:00;6.35;;;5.70;;
14342;SDS011;7255;53.596;9.960;2023-04-06T12:48:26;6.40;;;5.80;;
14342;SDS011;7255;53.596;9.960;2023-04-06T12:50:56;6.85;;;6.15;;
14342;SDS011;7255;53.596;9.960;2023-04-06T12:53:23;6.28;;;5.68;;
14342;SDS011;7255;53.596;9.960;2023-04-06T12:55:50;6.27;;;5.60;;
14342;SDS011;7255;53.596;9.960;2023-04-06T12:58:16;7.10;;;6.40;;
14342;SDS011;7255;53.596;9.960;2023-04-06T13:00:44;6.80;;;6.17;;
14342;SDS011;7255;53.596;9.960;2023-04-06T13:03:11;6.70;;;6.10;;
14342;SDS011;7255;53.596;9.960;2023-04-06T13:05:43;6.80;;;6.10;;
14342;SDS011;7255;53.596;9.960;2023-04-06T13:08:10;7.15;;;6.45;;
14342;SDS011;7255;53.596;9.960;2023-04-06T13:10:36;6.97;;;6.28;;
14342;SDS011;7255;53.596;9.960;2023-04-06T13:13:03;7.32;;;6.60;;
14342;SDS011;7255;53.596;9.960;2023-04-06T13:15:29;7.12;;;6.37;;
14342;SDS011;7255;53.596;9.960;2023-04-06T13:17:58;7.30;;;6.60;;
14342;SDS011;7255;53.596;9.960;2023-04-06T13:20:24;7.00;;;6.30;;
14342;SDS011;7255;53.596;9.960;2023-04-06T13:22:51;6.97;;;6.32;;
14342;SDS011;7255;53.596;9.960;2023-04-06T13:25:17;8.05;;;5.90;;
14342;SDS011;7255;53.596;9.960;2023-04-06T13:27:43;8.25;;;6.55;;
14342;SDS011;7255;53.596;9.960;2023-04-06T13:30:12;7.77;;;6.50;;
14342;SDS011;7255;53.596;9.960;2023-04-06T13:32:39;7.20;;;6.50;;
14342;SDS011;7255;53.596;9.960;2023-04-06T13:35:07;7.87;;;6.62;;
14342;SDS011;7255;53.596;9.960;2023-04-06T13:37:34;7.10;;;6.50;;
14342;SDS011;7255;53.596;9.960;2023-04-06T13:40:01;7.35;;;6.35;;
14342;SDS011;7255;53.596;9.960;2023-04-06T13:42:28;11.63;;;6.75;;
14342;SDS011;7255;53.596;9.960;2023-04-06T13:44:54;7.47;;;6.72;;
14342;SDS011;7255;53.596;9.960;2023-04-06T13:47:20;7.47;;;6.68;;
14342;SDS011;7255;53.596;9.960;2023-04-06T13:49:49;8.65;;;6.82;;
14342;SDS011;7255;53.596;9.960;2023-04-06T13:52:17;7.65;;;6.85;;
14342;SDS011;7255;53.596;9.960;2023-04-06T13:54:44;7.22;;;6.53;;
14342;SDS011;7255;53.596;9.960;2023-04-06T13:57:11;7.68;;;6.53;;
14342;SDS011;7255;53.596;9.960;2023-04-06T13:59:38;7.35;;;6.50;;
14342;SDS011;7255;53.596;9.960;2023-04-06T14:02:05;7.50;;;6.70;;
14342;SDS011;7255;53.596;9.960;2023-04-06T14:04:32;7.30;;;6.60;;
14342;SDS011;7255;53.596;9.960;2023-04-06T14:06:59;7.68;;;6.90;;
14342;SDS011;7255;53.596;9.960;2023-04-06T14:09:28;7.10;;;6.40;;
14342;SDS011;7255;53.596;9.960;2023-04-06T14:11:55;7.80;;;7.05;;
14342;SDS011;7255;53.596;9.960;2023-04-06T14:14:23;7.47;;;6.50;;
14342;SDS011;7255;53.596;9.960;2023-04-06T14:16:49;8.20;;;7.15;;
14342;SDS011;7255;53.596;9.960;2023-04-06T14:19:16;7.47;;;6.82;;
14342;SDS011;7255;53.596;9.960;2023-04-06T14:21:43;7.60;;;6.47;;
14342;SDS011;7255;53.596;9.960;2023-04-06T14:24:10;10.20;;;7.03;;
14342;SDS011;7255;53.596;9.960;2023-04-06T14:26:39;8.73;;;6.87;;
14342;SDS011;7255;53.596;9.960;2023-04-06T14:29:06;7.68;;;7.00;;
14342;SDS011;7255;53.596;9.960;2023-04-06T14:31:33;7.22;;;6.53;;
14342;SDS011;7255;53.596;9.960;2023-04-06T14:34:00;7.37;;;6.75;;
14342;SDS011;7255;53.596;9.960;2023-04-06T14:36:28;7.28;;;6.57;;
14342;SDS011;7255;53.596;9.960;2023-04-06T14:39:01;7.65;;;6.72;;
14342;SDS011;7255;53.596;9.960;2023-04-06T14:41:28;7.50;;;6.70;;
14342;SDS011;7255;53.596;9.960;2023-04-06T14:43:57;7.43;;;6.70;;
14342;SDS011;7255;53.596;9.960;2023-04-06T14:46:23;8.30;;;6.70;;
14342;SDS011;7255;53.596;9.960;2023-04-06T14:48:50;6.85;;;6.25;;
14342;SDS011;7255;53.596;9.960;2023-04-06T14:51:16;7.00;;;6.30;;
14342;SDS011;7255;53.596;9.960;2023-04-06T14:53:43;7.37;;;6.68;;
14342;SDS011;7255;53.596;9.960;2023-04-06T14:56:09;7.57;;;6.87;;